sensor_id;sensor_type;location;lat;lon;timestamp;pressure;altitude;pressure_sealevel;temperature;humidity
63306;BME280;50735;52.060;1.248;2023-02-18T00:01:21;101851.56;;;8.99;66.53
63306;BME280;50735;52.060;1.248;2023-02-18T00:03:50;101850.24;;;9.19;66.47
63306;BME280;50735;52.060;1.248;2023-02-18T00:06:19;101853.02;;;9.38;65.97
63306;BME280;50735;52.060;1.248;2023-02-18T00:08:47;101841.22;;;9.29;66.30
63306;BME280;50735;52.060;1.248;2023-02-18T00:11:15;101844.34;;;9.42;66.01
63306;BME280;50735;52.060;1.248;2023-02-18T00:13:48;101842.26;;;9.42;66.00
63306;BME280;50735;52.060;1.248;2023-02-18T00:16:16;101842.48;;;9.23;66.48
63306;BME280;50735;52.060;1.248;2023-02-18T00:18:42;101842.27;;;9.06;66.37
63306;BME280;50735;52.060;1.248;2023-02-18T00:21:09;101846.18;;;9.20;66.52
63306;BME280;50735;52.060;1.248;2023-02-18T00:23:36;101830.23;;;9.08;66.98
63306;BME280;50735;52.060;1.248;2023-02-18T00:26:04;101833.31;;;9.16;66.70
63306;BME280;50735;52.060;1.248;2023-02-18T00:28:31;101832.51;;;9.41;66.07
63306;BME280;50735;52.060;1.248;2023-02-18T00:31:04;101832.56;;;9.10;66.88
63306;BME280;50735;52.060;1.248;2023-02-18T00:33:31;101834.22;;;9.26;66.43
63306;BME280;50735;52.060;1.248;2023-02-18T00:36:01;101829.41;;;9.15;66.27
63306;BME280;50735;52.060;1.248;2023-02-18T00:38:28;101828.07;;;9.32;66.29
63306;BME280;50735;52.060;1.248;2023-02-18T00:40:55;101827.77;;;8.82;67.34
63306;BME280;50735;52.060;1.248;2023-02-18T00:43:23;101826.18;;;9.16;66.21
63306;BME280;50735;52.060;1.248;2023-02-18T00:45:49;101817.44;;;9.30;66.39
63306;BME280;50735;52.060;1.248;2023-02-18T00:48:17;101814.15;;;8.76;66.81
63306;BME280;50735;52.060;1.248;2023-02-18T00:50:44;101811.19;;;8.88;67.08
63306;BME280;50735;52.060;1.248;2023-02-18T00:53:11;101803.69;;;9.26;66.54
63306;BME280;50735;52.060;1.248;2023-02-18T00:55:38;101796.32;;;9.08;66.45
63306;BME280;50735;52.060;1.248;2023-02-18T00:58:05;101797.00;;;9.11;66.33
63306;BME280;50735;52.060;1.248;2023-02-18T01:00:32;101797.34;;;9.20;66.12
63306;BME280;50735;52.060;1.248;2023-02-18T01:02:59;101795.14;;;9.32;65.71
63306;BME280;50735;52.060;1.248;2023-02-18T01:05:27;101790.72;;;9.14;65.84
63306;BME280;50735;52.060;1.248;2023-02-18T01:07:54;101785.27;;;9.24;66.02
63306;BME280;50735;52.060;1.248;2023-02-18T01:10:21;101795.69;;;8.75;66.84
63306;BME280;50735;52.060;1.248;2023-02-18T01:12:47;101795.84;;;9.20;66.69
63306;BME280;50735;52.060;1.248;2023-02-18T01:15:15;101786.17;;;9.34;66.26
63306;BME280;50735;52.060;1.248;2023-02-18T01:17:43;101788.91;;;9.07;66.61
63306;BME280;50735;52.060;1.248;2023-02-18T01:20:12;101788.75;;;9.17;66.52
63306;BME280;50735;52.060;1.248;2023-02-18T01:22:40;101790.32;;;9.17;67.05
63306;BME280;50735;52.060;1.248;2023-02-18T01:25:08;101787.21;;;8.70;68.47
63306;BME280;50735;52.060;1.248;2023-02-18T01:27:36;101786.82;;;8.72;67.82
63306;BME280;50735;52.060;1.248;2023-02-18T01:30:07;101780.30;;;9.05;67.44
63306;BME280;50735;52.060;1.248;2023-02-18T01:32:34;101779.88;;;8.94;67.75
63306;BME280;50735;52.060;1.248;2023-02-18T01:35:02;101780.75;;;8.97;66.98
63306;BME280;50735;52.060;1.248;2023-02-18T01:37:30;101792.69;;;9.21;67.33
63306;BME280;50735;52.060;1.248;2023-02-18T01:39:56;101771.86;;;8.75;67.92
63306;BME280;50735;52.060;1.248;2023-02-18T01:42:25;101780.19;;;8.74;67.77
63306;BME280;50735;52.060;1.248;2023-02-18T01:44:53;101768.51;;;8.80;67.61
63306;BME280;50735;52.060;1.248;2023-02-18T01:47:20;101769.82;;;8.80;67.62
63306;BME280;50735;52.060;1.248;2023-02-18T01:49:50;101764.00;;;8.70;67.89
63306;BME280;50735;52.060;1.248;2023-02-18T01:52:20;101776.43;;;8.86;67.23
63306;BME280;50735;52.060;1.248;2023-02-18T01:54:52;101766.90;;;9.02;66.73
63306;BME280;50735;52.060;1.248;2023-02-18T01:57:22;101762.64;;;8.77;67.05
63306;BME280;50735;52.060;1.248;2023-02-18T01:59:52;101759.10;;;8.83;66.66
63306;BME280;50735;52.060;1.248;2023-02-18T02:02:22;101750.62;;;8.82;66.13
63306;BME280;50735;52.060;1.248;2023-02-18T02:04:49;101748.34;;;8.72;66.28
63306;BME280;50735;52.060;1.248;2023-02-18T02:07:18;101747.14;;;8.79;66.58
63306;BME280;50735;52.060;1.248;2023-02-18T02:09:47;101742.30;;;9.05;65.80
63306;BME280;50735;52.060;1.248;2023-02-18T02:12:27;101757.63;;;8.86;65.70
63306;BME280;50735;52.060;1.248;2023-02-18T02:15:07;101749.78;;;8.70;66.27
63306;BME280;50735;52.060;1.248;2023-02-18T02:17:48;101727.58;;;8.86;65.51
63306;BME280;50735;52.060;1.248;2023-02-18T02:20:43;101725.40;;;8.44;65.25
63306;BME280;50735;52.060;1.248;2023-02-18T02:25:39;101708.96;;;8.99;64.78
63306;BME280;50735;52.060;1.248;2023-02-18T02:28:29;101710.13;;;8.53;64.36
63306;BME280;50735;52.060;1.248;2023-02-18T02:31:31;101704.79;;;8.37;64.59
63306;BME280;50735;52.060;1.248;2023-02-18T02:34:18;101698.90;;;8.31;64.38
63306;BME280;50735;52.060;1.248;2023-02-18T02:36:51;101679.59;;;8.74;63.72
63306;BME280;50735;52.060;1.248;2023-02-18T02:39:26;101683.42;;;8.78;63.57
63306;BME280;50735;52.060;1.248;2023-02-18T02:42:06;101704.72;;;8.14;64.79
63306;BME280;50735;52.060;1.248;2023-02-18T02:44:38;101704.21;;;8.04;65.01
63306;BME280;50735;52.060;1.248;2023-02-18T02:47:13;101694.08;;;8.20;65.00
63306;BME280;50735;52.060;1.248;2023-02-18T02:49:48;101690.76;;;8.26;64.82
63306;BME280;50735;52.060;1.248;2023-02-18T02:52:25;101680.42;;;8.04;64.80
63306;BME280;50735;52.060;1.248;2023-02-18T02:54:53;101672.53;;;8.12;64.89
63306;BME280;50735;52.060;1.248;2023-02-18T02:57:53;101671.23;;;8.25;63.77
63306;BME280;50735;52.060;1.248;2023-02-18T03:00:26;101672.72;;;8.48;63.49
63306;BME280;50735;52.060;1.248;2023-02-18T03:03:08;101677.85;;;8.46;63.12
63306;BME280;50735;52.060;1.248;2023-02-18T03:05:54;101671.86;;;8.15;63.75
63306;BME280;50735;52.060;1.248;2023-02-18T03:08:37;101684.56;;;7.83;63.96
63306;BME280;50735;52.060;1.248;2023-02-18T03:11:08;101675.31;;;8.40;63.32
63306;BME280;50735;52.060;1.248;2023-02-18T03:13:48;101680.64;;;8.51;62.58
63306;BME280;50735;52.060;1.248;2023-02-18T03:16:24;101685.09;;;7.94;63.58
63306;BME280;50735;52.060;1.248;2023-02-18T03:18:58;101687.68;;;8.03;63.43
63306;BME280;50735;52.060;1.248;2023-02-18T03:21:28;101684.47;;;8.38;63.25
63306;BME280;50735;52.060;1.248;2023-02-18T03:24:01;101685.39;;;8.17;63.64
63306;BME280;50735;52.060;1.248;2023-02-18T03:26:30;101673.31;;;8.50;62.81
63306;BME280;50735;52.060;1.248;2023-02-18T03:29:02;101689.91;;;8.11;63.13
63306;BME280;50735;52.060;1.248;2023-02-18T03:31:33;101671.80;;;7.90;63.36
63306;BME280;50735;52.060;1.248;2023-02-18T03:34:05;101667.36;;;7.89;63.40
63306;BME280;50735;52.060;1.248;2023-02-18T03:36:33;101650.51;;;7.65;63.28
63306;BME280;50735;52.060;1.248;2023-02-18T03:39:04;101641.40;;;7.99;62.30
63306;BME280;50735;52.060;1.248;2023-02-18T03:41:33;101637.07;;;8.03;62.13
63306;BME280;50735;52.060;1.248;2023-02-18T03:44:03;101635.07;;;8.08;62.12
63306;BME280;50735;52.060;1.248;2023-02-18T03:46:30;101629.08;;;7.76;62.27
63306;BME280;50735;52.060;1.248;2023-02-18T03:48:58;101638.74;;;7.75;61.97
63306;BME280;50735;52.060;1.248;2023-02-18T03:51:24;101628.94;;;8.05;61.47
63306;BME280;50735;52.060;1.248;2023-02-18T03:53:52;101628.46;;;7.77;62.13
63306;BME280;50735;52.060;1.248;2023-02-18T03:56:19;101622.79;;;7.67;62.32
63306;BME280;50735;52.060;1.248;2023-02-18T03:58:46;101628.71;;;7.63;62.23
63306;BME280;50735;52.060;1.248;2023-02-18T04:01:13;101623.92;;;8.04;61.12
63306;BME280;50735;52.060;1.248;2023-02-18T04:03:40;101624.06;;;7.64;61.32
63306;BME280;50735;52.060;1.248;2023-02-18T04:06:07;101623.98;;;7.71;61.18
63306;BME280;50735;52.060;1.248;2023-02-18T04:08:35;101620.82;;;7.99;60.94
63306;BME280;50735;52.060;1.248;2023-02-18T04:11:02;101626.51;;;7.79;61.47
63306;BME280;50735;52.060;1.248;2023-02-18T04:13:29;101611.02;;;7.79;61.48
63306;BME280;50735;52.060;1.248;2023-02-18T04:15:56;101606.81;;;7.92;60.98
63306;BME280;50735;52.060;1.248;2023-02-18T04:18:23;101614.75;;;7.58;61.50
63306;BME280;50735;52.060;1.248;2023-02-18T04:20:49;101604.99;;;7.88;60.78
63306;BME280;50735;52.060;1.248;2023-02-18T04:23:17;101588.07;;;7.55;61.36
63306;BME280;50735;52.060;1.248;2023-02-18T04:25:43;101583.10;;;7.70;61.13
63306;BME280;50735;52.060;1.248;2023-02-18T04:28:12;101578.43;;;7.88;60.52
63306;BME280;50735;52.060;1.248;2023-02-18T04:30:39;101577.06;;;7.73;60.65
63306;BME280;50735;52.060;1.248;2023-02-18T04:33:06;101574.27;;;7.71;60.14
63306;BME280;50735;52.060;1.248;2023-02-18T04:35:32;101577.50;;;7.94;60.02
63306;BME280;50735;52.060;1.248;2023-02-18T04:37:59;101583.78;;;7.93;59.98
63306;BME280;50735;52.060;1.248;2023-02-18T04:40:26;101578.34;;;8.07;59.66
63306;BME280;50735;52.060;1.248;2023-02-18T04:42:53;101576.33;;;7.78;59.75
63306;BME280;50735;52.060;1.248;2023-02-18T04:45:19;101570.04;;;7.45;60.46
63306;BME280;50735;52.060;1.248;2023-02-18T04:47:46;101570.49;;;7.70;60.38
63306;BME280;50735;52.060;1.248;2023-02-18T04:50:12;101575.11;;;7.57;60.59
63306;BME280;50735;52.060;1.248;2023-02-18T04:52:39;101566.91;;;7.67;61.03
63306;BME280;50735;52.060;1.248;2023-02-18T04:55:06;101569.20;;;7.38;60.75
63306;BME280;50735;52.060;1.248;2023-02-18T04:57:33;101564.25;;;7.28;60.85
63306;BME280;50735;52.060;1.248;2023-02-18T05:00:00;101560.34;;;7.30;60.81
63306;BME280;50735;52.060;1.248;2023-02-18T05:02:26;101570.49;;;7.28;60.88
63306;BME280;50735;52.060;1.248;2023-02-18T05:04:53;101577.07;;;7.28;60.67
63306;BME280;50735;52.060;1.248;2023-02-18T05:07:19;101581.54;;;7.15;61.04
63306;BME280;50735;52.060;1.248;2023-02-18T05:09:46;101581.48;;;7.15;60.95
63306;BME280;50735;52.060;1.248;2023-02-18T05:12:13;101561.34;;;6.86;61.57
63306;BME280;50735;52.060;1.248;2023-02-18T05:14:39;101561.99;;;7.07;60.90
63306;BME280;50735;52.060;1.248;2023-02-18T05:17:06;101560.80;;;6.93;61.23
63306;BME280;50735;52.060;1.248;2023-02-18T05:19:32;101551.21;;;6.78;61.63
63306;BME280;50735;52.060;1.248;2023-02-18T05:21:59;101550.44;;;7.04;61.39
63306;BME280;50735;52.060;1.248;2023-02-18T05:24:26;101547.65;;;6.89;60.92
63306;BME280;50735;52.060;1.248;2023-02-18T05:26:53;101544.64;;;7.21;61.08
63306;BME280;50735;52.060;1.248;2023-02-18T05:29:20;101544.09;;;7.34;60.62
63306;BME280;50735;52.060;1.248;2023-02-18T05:31:46;101552.20;;;6.98;60.54
63306;BME280;50735;52.060;1.248;2023-02-18T05:34:13;101556.95;;;7.12;60.17
63306;BME280;50735;52.060;1.248;2023-02-18T05:36:39;101550.12;;;7.02;60.27
63306;BME280;50735;52.060;1.248;2023-02-18T05:39:06;101552.68;;;7.27;60.09
63306;BME280;50735;52.060;1.248;2023-02-18T05:41:33;101550.33;;;7.03;60.01
63306;BME280;50735;52.060;1.248;2023-02-18T05:43:59;101547.27;;;6.95;60.12
63306;BME280;50735;52.060;1.248;2023-02-18T05:46:27;101547.29;;;7.16;59.51
63306;BME280;50735;52.060;1.248;2023-02-18T05:48:53;101544.19;;;7.16;59.84
63306;BME280;50735;52.060;1.248;2023-02-18T05:51:20;101550.20;;;6.96;59.77
63306;BME280;50735;52.060;1.248;2023-02-18T05:53:46;101546.85;;;7.08;59.50
63306;BME280;50735;52.060;1.248;2023-02-18T05:56:13;101546.33;;;6.96;59.55
63306;BME280;50735;52.060;1.248;2023-02-18T05:58:40;101543.96;;;6.81;59.77
63306;BME280;50735;52.060;1.248;2023-02-18T06:01:07;101541.91;;;6.99;59.83
63306;BME280;50735;52.060;1.248;2023-02-18T06:03:33;101549.35;;;6.80;59.83
63306;BME280;50735;52.060;1.248;2023-02-18T06:06:01;101549.08;;;7.19;59.67
63306;BME280;50735;52.060;1.248;2023-02-18T06:08:27;101549.82;;;7.03;59.22
63306;BME280;50735;52.060;1.248;2023-02-18T06:10:54;101549.93;;;6.95;59.44
63306;BME280;50735;52.060;1.248;2023-02-18T06:13:21;101553.62;;;7.21;59.65
63306;BME280;50735;52.060;1.248;2023-02-18T06:15:49;101551.35;;;7.26;59.68
63306;BME280;50735;52.060;1.248;2023-02-18T06:18:16;101549.55;;;6.76;60.01
63306;BME280;50735;52.060;1.248;2023-02-18T06:20:43;101548.69;;;6.91;59.71
63306;BME280;50735;52.060;1.248;2023-02-18T06:23:10;101544.32;;;6.97;60.12
63306;BME280;50735;52.060;1.248;2023-02-18T06:25:37;101537.30;;;6.69;60.25
63306;BME280;50735;52.060;1.248;2023-02-18T06:28:03;101544.36;;;6.90;59.77
63306;BME280;50735;52.060;1.248;2023-02-18T06:30:31;101538.57;;;6.84;59.85
63306;BME280;50735;52.060;1.248;2023-02-18T06:32:57;101540.28;;;7.29;59.43
63306;BME280;50735;52.060;1.248;2023-02-18T06:35:24;101529.75;;;7.13;59.44
63306;BME280;50735;52.060;1.248;2023-02-18T06:37:50;101538.11;;;7.18;59.34
63306;BME280;50735;52.060;1.248;2023-02-18T06:40:17;101535.03;;;7.24;59.29
63306;BME280;50735;52.060;1.248;2023-02-18T06:42:44;101536.71;;;7.17;59.49
63306;BME280;50735;52.060;1.248;2023-02-18T06:45:11;101522.73;;;7.45;59.32
63306;BME280;50735;52.060;1.248;2023-02-18T06:47:38;101526.57;;;7.01;60.00
63306;BME280;50735;52.060;1.248;2023-02-18T06:50:06;101535.07;;;6.95;60.34
63306;BME280;50735;52.060;1.248;2023-02-18T06:52:34;101529.76;;;7.12;59.97
63306;BME280;50735;52.060;1.248;2023-02-18T06:55:00;101540.42;;;7.09;60.14
63306;BME280;50735;52.060;1.248;2023-02-18T06:57:27;101535.29;;;7.30;59.76
63306;BME280;50735;52.060;1.248;2023-02-18T06:59:53;101533.18;;;7.41;58.98
63306;BME280;50735;52.060;1.248;2023-02-18T07:02:20;101532.81;;;7.57;59.31
63306;BME280;50735;52.060;1.248;2023-02-18T07:04:47;101541.22;;;7.24;60.10
63306;BME280;50735;52.060;1.248;2023-02-18T07:07:13;101538.44;;;7.08;60.62
63306;BME280;50735;52.060;1.248;2023-02-18T07:09:40;101542.51;;;7.33;60.64
63306;BME280;50735;52.060;1.248;2023-02-18T07:12:06;101534.97;;;7.39;60.63
63306;BME280;50735;52.060;1.248;2023-02-18T07:14:33;101538.00;;;7.11;60.96
63306;BME280;50735;52.060;1.248;2023-02-18T07:17:00;101539.36;;;7.12;61.08
63306;BME280;50735;52.060;1.248;2023-02-18T07:19:27;101546.22;;;7.18;60.98
63306;BME280;50735;52.060;1.248;2023-02-18T07:21:53;101544.66;;;7.19;61.20
63306;BME280;50735;52.060;1.248;2023-02-18T07:24:20;101549.61;;;6.97;61.85
63306;BME280;50735;52.060;1.248;2023-02-18T07:26:47;101552.81;;;6.99;61.93
63306;BME280;50735;52.060;1.248;2023-02-18T07:29:13;101545.64;;;6.73;62.92
63306;BME280;50735;52.060;1.248;2023-02-18T07:31:41;101535.05;;;6.91;62.58
63306;BME280;50735;52.060;1.248;2023-02-18T07:34:07;101535.94;;;7.05;62.29
63306;BME280;50735;52.060;1.248;2023-02-18T07:36:34;101544.32;;;6.96;62.80
63306;BME280;50735;52.060;1.248;2023-02-18T07:39:00;101538.90;;;7.22;63.21
63306;BME280;50735;52.060;1.248;2023-02-18T07:41:27;101538.79;;;7.14;62.54
63306;BME280;50735;52.060;1.248;2023-02-18T07:43:54;101553.53;;;7.11;62.88
63306;BME280;50735;52.060;1.248;2023-02-18T07:46:20;101552.99;;;7.09;63.04
63306;BME280;50735;52.060;1.248;2023-02-18T07:48:47;101556.42;;;7.27;62.72
63306;BME280;50735;52.060;1.248;2023-02-18T07:51:13;101558.84;;;7.44;62.97
63306;BME280;50735;52.060;1.248;2023-02-18T07:53:41;101550.19;;;7.47;62.45
63306;BME280;50735;52.060;1.248;2023-02-18T07:56:08;101564.91;;;7.08;63.25
63306;BME280;50735;52.060;1.248;2023-02-18T07:58:37;101563.55;;;7.33;63.16
63306;BME280;50735;52.060;1.248;2023-02-18T08:01:05;101568.49;;;7.35;63.41
63306;BME280;50735;52.060;1.248;2023-02-18T08:03:33;101566.91;;;7.47;63.23
63306;BME280;50735;52.060;1.248;2023-02-18T08:06:02;101571.48;;;7.37;63.67
63306;BME280;50735;52.060;1.248;2023-02-18T08:08:30;101567.65;;;7.25;64.22
63306;BME280;50735;52.060;1.248;2023-02-18T08:10:59;101562.13;;;7.29;64.21
63306;BME280;50735;52.060;1.248;2023-02-18T08:13:26;101570.93;;;7.27;64.54
63306;BME280;50735;52.060;1.248;2023-02-18T08:15:53;101586.88;;;7.76;63.39
63306;BME280;50735;52.060;1.248;2023-02-18T08:18:22;101587.12;;;7.85;63.28
63306;BME280;50735;52.060;1.248;2023-02-18T08:20:49;101596.94;;;8.15;62.69
63306;BME280;50735;52.060;1.248;2023-02-18T08:23:18;101592.82;;;8.19;62.71
63306;BME280;50735;52.060;1.248;2023-02-18T08:25:47;101600.47;;;8.28;62.08
63306;BME280;50735;52.060;1.248;2023-02-18T08:28:15;101603.03;;;7.78;62.98
63306;BME280;50735;52.060;1.248;2023-02-18T08:30:43;101606.38;;;8.38;61.60
63306;BME280;50735;52.060;1.248;2023-02-18T08:33:11;101615.33;;;8.29;61.78
63306;BME280;50735;52.060;1.248;2023-02-18T08:35:38;101616.78;;;8.18;62.75
63306;BME280;50735;52.060;1.248;2023-02-18T08:38:05;101616.89;;;8.02;63.21
63306;BME280;50735;52.060;1.248;2023-02-18T08:40:32;101608.43;;;7.93;63.05
63306;BME280;50735;52.060;1.248;2023-02-18T08:42:59;101613.92;;;8.21;62.77
63306;BME280;50735;52.060;1.248;2023-02-18T08:45:26;101618.83;;;8.04;63.47
63306;BME280;50735;52.060;1.248;2023-02-18T08:47:52;101616.23;;;8.22;62.92
63306;BME280;50735;52.060;1.248;2023-02-18T08:50:19;101616.68;;;8.27;62.33
63306;BME280;50735;52.060;1.248;2023-02-18T08:52:47;101619.47;;;8.19;63.15
63306;BME280;50735;52.060;1.248;2023-02-18T08:55:13;101618.91;;;8.34;62.98
63306;BME280;50735;52.060;1.248;2023-02-18T08:57:40;101616.77;;;8.08;63.03
63306;BME280;50735;52.060;1.248;2023-02-18T09:00:07;101617.62;;;8.59;62.64
63306;BME280;50735;52.060;1.248;2023-02-18T09:02:34;101621.52;;;8.66;62.16
63306;BME280;50735;52.060;1.248;2023-02-18T09:05:00;101617.57;;;8.19;63.42
63306;BME280;50735;52.060;1.248;2023-02-18T09:07:27;101614.87;;;8.73;62.52
63306;BME280;50735;52.060;1.248;2023-02-18T09:09:53;101623.65;;;8.23;62.83
63306;BME280;50735;52.060;1.248;2023-02-18T09:12:20;101620.97;;;8.41;62.39
63306;BME280;50735;52.060;1.248;2023-02-18T09:14:47;101625.17;;;8.89;61.32
63306;BME280;50735;52.060;1.248;2023-02-18T09:17:14;101629.32;;;8.85;61.43
63306;BME280;50735;52.060;1.248;2023-02-18T09:19:41;101626.75;;;8.57;62.11
63306;BME280;50735;52.060;1.248;2023-02-18T09:22:08;101632.34;;;8.55;62.23
63306;BME280;50735;52.060;1.248;2023-02-18T09:24:36;101636.29;;;8.83;61.57
63306;BME280;50735;52.060;1.248;2023-02-18T09:27:03;101646.24;;;8.34;62.81
63306;BME280;50735;52.060;1.248;2023-02-18T09:29:30;101641.74;;;8.57;62.17
63306;BME280;50735;52.060;1.248;2023-02-18T09:31:59;101639.69;;;8.64;62.14
63306;BME280;50735;52.060;1.248;2023-02-18T09:34:26;101646.37;;;8.86;61.70
63306;BME280;50735;52.060;1.248;2023-02-18T09:36:53;101658.19;;;9.03;61.81
63306;BME280;50735;52.060;1.248;2023-02-18T09:39:20;101659.71;;;8.57;62.34
63306;BME280;50735;52.060;1.248;2023-02-18T09:41:49;101662.31;;;8.87;61.68
63306;BME280;50735;52.060;1.248;2023-02-18T09:44:22;101664.12;;;8.97;61.07
63306;BME280;50735;52.060;1.248;2023-02-18T09:46:51;101661.74;;;9.07;61.08
63306;BME280;50735;52.060;1.248;2023-02-18T09:49:22;101661.64;;;9.31;60.71
63306;BME280;50735;52.060;1.248;2023-02-18T09:51:51;101675.84;;;8.88;61.23
63306;BME280;50735;52.060;1.248;2023-02-18T09:54:19;101676.13;;;8.93;61.25
63306;BME280;50735;52.060;1.248;2023-02-18T09:56:47;101670.76;;;9.09;61.53
63306;BME280;50735;52.060;1.248;2023-02-18T09:59:17;101674.21;;;9.02;61.80
63306;BME280;50735;52.060;1.248;2023-02-18T10:01:46;101683.17;;;8.98;61.22
63306;BME280;50735;52.060;1.248;2023-02-18T10:04:16;101666.41;;;9.16;60.56
63306;BME280;50735;52.060;1.248;2023-02-18T10:06:45;101668.25;;;9.22;61.40
63306;BME280;50735;52.060;1.248;2023-02-18T10:09:18;101672.65;;;9.08;61.59
63306;BME280;50735;52.060;1.248;2023-02-18T10:11:47;101673.86;;;8.83;61.93
63306;BME280;50735;52.060;1.248;2023-02-18T10:14:15;101680.28;;;8.84;61.84
63306;BME280;50735;52.060;1.248;2023-02-18T10:16:44;101684.05;;;9.18;61.06
63306;BME280;50735;52.060;1.248;2023-02-18T10:19:20;101695.50;;;8.91;61.19
63306;BME280;50735;52.060;1.248;2023-02-18T10:21:48;101696.62;;;9.60;60.45
63306;BME280;50735;52.060;1.248;2023-02-18T10:24:27;101699.68;;;9.14;60.63
63306;BME280;50735;52.060;1.248;2023-02-18T10:26:54;101696.16;;;9.37;60.03
63306;BME280;50735;52.060;1.248;2023-02-18T10:29:22;101695.96;;;9.31;60.28
63306;BME280;50735;52.060;1.248;2023-02-18T10:31:53;101687.97;;;9.89;59.66
63306;BME280;50735;52.060;1.248;2023-02-18T10:34:33;101685.45;;;9.58;59.53
63306;BME280;50735;52.060;1.248;2023-02-18T10:37:07;101690.76;;;9.62;59.88
63306;BME280;50735;52.060;1.248;2023-02-18T10:39:50;101693.45;;;9.55;59.55
63306;BME280;50735;52.060;1.248;2023-02-18T10:42:30;101692.67;;;9.62;59.43
63306;BME280;50735;52.060;1.248;2023-02-18T10:45:06;101706.02;;;9.58;59.51
63306;BME280;50735;52.060;1.248;2023-02-18T10:47:39;101710.47;;;9.87;58.84
63306;BME280;50735;52.060;1.248;2023-02-18T10:50:10;101701.52;;;10.29;58.72
63306;BME280;50735;52.060;1.248;2023-02-18T10:52:41;101707.32;;;9.79;59.04
63306;BME280;50735;52.060;1.248;2023-02-18T10:55:10;101715.46;;;9.88;58.94
63306;BME280;50735;52.060;1.248;2023-02-18T10:57:46;101712.83;;;9.51;59.68
63306;BME280;50735;52.060;1.248;2023-02-18T11:00:17;101714.11;;;9.62;59.68
63306;BME280;50735;52.060;1.248;2023-02-18T11:02:45;101712.41;;;10.05;58.72
63306;BME280;50735;52.060;1.248;2023-02-18T11:05:19;101712.82;;;9.82;59.30
63306;BME280;50735;52.060;1.248;2023-02-18T11:07:50;101712.42;;;9.82;59.19
63306;BME280;50735;52.060;1.248;2023-02-18T11:10:22;101710.08;;;9.16;60.23
63306;BME280;50735;52.060;1.248;2023-02-18T11:12:55;101710.60;;;9.49;60.11
63306;BME280;50735;52.060;1.248;2023-02-18T11:15:24;101703.82;;;9.48;60.37
63306;BME280;50735;52.060;1.248;2023-02-18T11:17:53;101702.86;;;9.64;60.17
63306;BME280;50735;52.060;1.248;2023-02-18T11:20:25;101708.90;;;9.50;59.80
63306;BME280;50735;52.060;1.248;2023-02-18T11:22:56;101702.48;;;9.60;59.78
63306;BME280;50735;52.060;1.248;2023-02-18T11:25:25;101703.33;;;9.69;59.56
63306;BME280;50735;52.060;1.248;2023-02-18T11:27:55;101704.08;;;9.67;59.51
63306;BME280;50735;52.060;1.248;2023-02-18T11:30:25;101701.75;;;9.88;59.15
63306;BME280;50735;52.060;1.248;2023-02-18T11:32:56;101703.29;;;9.80;59.29
63306;BME280;50735;52.060;1.248;2023-02-18T11:35:26;101700.67;;;9.93;59.28
63306;BME280;50735;52.060;1.248;2023-02-18T11:37:56;101704.11;;;9.94;58.99
63306;BME280;50735;52.060;1.248;2023-02-18T11:40:27;101700.65;;;10.24;58.23
63306;BME280;50735;52.060;1.248;2023-02-18T11:43:03;101698.61;;;10.09;58.64
63306;BME280;50735;52.060;1.248;2023-02-18T11:45:32;101697.54;;;9.98;58.33
63306;BME280;50735;52.060;1.248;2023-02-18T11:48:02;101689.87;;;10.49;57.66
63306;BME280;50735;52.060;1.248;2023-02-18T11:50:33;101699.10;;;10.32;57.54
63306;BME280;50735;52.060;1.248;2023-02-18T11:53:00;101690.27;;;10.21;58.43
63306;BME280;50735;52.060;1.248;2023-02-18T11:55:53;101695.03;;;10.11;58.51
63306;BME280;50735;52.060;1.248;2023-02-18T11:58:20;101693.80;;;10.46;58.36
63306;BME280;50735;52.060;1.248;2023-02-18T12:00:48;101691.10;;;10.86;57.00
63306;BME280;50735;52.060;1.248;2023-02-18T12:03:24;101682.92;;;10.75;56.69
63306;BME280;50735;52.060;1.248;2023-02-18T12:05:56;101682.81;;;11.14;56.40
63306;BME280;50735;52.060;1.248;2023-02-18T12:08:27;101686.96;;;10.75;56.26
63306;BME280;50735;52.060;1.248;2023-02-18T12:11:00;101692.12;;;10.67;56.90
63306;BME280;50735;52.060;1.248;2023-02-18T12:13:31;101686.40;;;10.61;56.79
63306;BME280;50735;52.060;1.248;2023-02-18T12:16:07;101685.16;;;10.43;57.57
63306;BME280;50735;52.060;1.248;2023-02-18T12:18:45;101683.81;;;10.73;56.87
63306;BME280;50735;52.060;1.248;2023-02-18T12:21:26;101689.13;;;10.50;57.41
63306;BME280;50735;52.060;1.248;2023-02-18T12:24:00;101684.82;;;10.07;58.92
63306;BME280;50735;52.060;1.248;2023-02-18T12:26:37;101687.65;;;10.16;58.29
63306;BME280;50735;52.060;1.248;2023-02-18T12:29:21;101687.87;;;10.51;57.52
63306;BME280;50735;52.060;1.248;2023-02-18T12:32:02;101692.20;;;10.54;57.15
63306;BME280;50735;52.060;1.248;2023-02-18T12:34:46;101687.29;;;10.90;57.14
63306;BME280;50735;52.060;1.248;2023-02-18T12:37:38;101686.65;;;10.52;57.31
63306;BME280;50735;52.060;1.248;2023-02-18T12:40:33;101686.72;;;10.84;57.14
63306;BME280;50735;52.060;1.248;2023-02-18T12:43:12;101682.30;;;10.84;57.04
63306;BME280;50735;52.060;1.248;2023-02-18T12:45:52;101674.08;;;11.02;56.69
63306;BME280;50735;52.060;1.248;2023-02-18T12:48:33;101680.89;;;10.82;56.83
63306;BME280;50735;52.060;1.248;2023-02-18T12:51:13;101676.55;;;11.07;56.47
63306;BME280;50735;52.060;1.248;2023-02-18T12:53:55;101672.60;;;11.05;56.68
63306;BME280;50735;52.060;1.248;2023-02-18T12:56:39;101675.94;;;10.64;57.28
63306;BME280;50735;52.060;1.248;2023-02-18T12:59:15;101685.52;;;10.89;56.73
63306;BME280;50735;52.060;1.248;2023-02-18T13:01:55;101690.24;;;10.63;57.59
63306;BME280;50735;52.060;1.248;2023-02-18T13:04:36;101681.38;;;10.64;57.92
63306;BME280;50735;52.060;1.248;2023-02-18T13:07:48;101679.28;;;10.69;58.11
63306;BME280;50735;52.060;1.248;2023-02-18T13:10:33;101671.09;;;10.34;58.39
63306;BME280;50735;52.060;1.248;2023-02-18T13:13:10;101675.73;;;10.19;58.95
63306;BME280;50735;52.060;1.248;2023-02-18T13:15:41;101670.83;;;9.82;60.27
63306;BME280;50735;52.060;1.248;2023-02-18T13:18:12;101670.30;;;10.07;59.98